createdAt,value
2017-10-26T00:00:22.136Z,56.70
2017-10-26T00:01:22.652Z,55.50
2017-10-26T00:02:21.840Z,54.80
2017-10-26T00:03:21.719Z,55.50
2017-10-26T00:04:21.512Z,53.40
2017-10-26T00:05:21.625Z,59.20
2017-10-26T00:06:21.376Z,57.10
2017-10-26T00:07:21.582Z,59.20
2017-10-26T00:08:22.033Z,61.30
2017-10-26T00:09:21.830Z,62.30
2017-10-26T00:10:22.063Z,62.00
2017-10-26T00:11:22.157Z,58.70
2017-10-26T00:12:21.896Z,61.20
2017-10-26T00:13:22.258Z,60.30
2017-10-26T00:14:20.933Z,60.40
2017-10-26T00:15:22.202Z,59.10
2017-10-26T00:16:22.398Z,61.60
2017-10-26T00:17:24.511Z,62.20
2017-10-26T00:18:21.695Z,61.20
2017-10-26T00:19:21.447Z,58.60
2017-10-26T00:20:21.770Z,58.20
2017-10-26T00:21:21.356Z,55.70
2017-10-26T00:22:21.757Z,54.30
2017-10-26T00:23:21.113Z,53.80
2017-10-26T00:24:22.298Z,54.20
2017-10-26T00:25:23.630Z,52.70
2017-10-26T00:26:21.771Z,52.20
2017-10-26T00:27:23.018Z,50.80
2017-10-26T00:28:21.936Z,52.50
2017-10-26T00:29:21.776Z,50.50
2017-10-26T00:30:21.835Z,51.00
2017-10-26T00:31:21.642Z,49.10
2017-10-26T00:32:23.531Z,47.70
2017-10-26T00:33:21.636Z,49.00
2017-10-26T00:34:21.452Z,46.90
2017-10-26T00:35:21.218Z,47.30
2017-10-26T00:36:21.219Z,46.80
2017-10-26T00:37:21.281Z,46.00
2017-10-26T00:38:22.053Z,45.80
2017-10-26T00:39:21.734Z,45.90
2017-10-26T00:40:21.597Z,47.00
2017-10-26T00:41:21.469Z,46.30
2017-10-26T00:42:21.161Z,45.70
2017-10-26T00:43:21.637Z,46.40
2017-10-26T00:44:22.396Z,46.50
2017-10-26T00:45:21.297Z,46.00
2017-10-26T00:46:21.460Z,46.00
2017-10-26T00:47:21.202Z,45.10
2017-10-26T00:48:22.256Z,46.60
2017-10-26T00:49:21.661Z,49.80
2017-10-26T00:50:21.744Z,49.20
2017-10-26T00:51:21.733Z,50.80
2017-10-26T00:52:23.245Z,53.40
2017-10-26T00:53:23.324Z,53.80
2017-10-26T00:54:21.021Z,53.70
2017-10-26T00:55:22.184Z,54.50
2017-10-26T00:56:21.586Z,57.00
2017-10-26T00:57:22.358Z,57.80
2017-10-26T00:58:21.719Z,57.40
2017-10-26T00:59:22.065Z,61.00
2017-10-26T01:00:22.421Z,64.90
2017-10-26T01:01:21.423Z,63.70
2017-10-26T01:02:21.117Z,62.10
2017-10-26T01:03:21.875Z,65.10
2017-10-26T01:04:22.246Z,64.80
2017-10-26T01:05:21.404Z,69.30
2017-10-26T01:06:21.130Z,70.20
2017-10-26T01:07:20.952Z,72.10
2017-10-26T01:08:22.175Z,70.00
2017-10-26T01:09:21.282Z,72.00
2017-10-26T01:10:21.353Z,72.70
2017-10-26T01:11:21.553Z,73.80
2017-10-26T01:12:21.688Z,73.20
2017-10-26T01:13:21.939Z,74.90
2017-10-26T01:14:22.269Z,74.70
2017-10-26T01:15:22.633Z,75.90
2017-10-26T01:16:22.142Z,73.00
2017-10-26T01:17:21.337Z,74.50
2017-10-26T01:18:22.418Z,76.20
2017-10-26T01:19:21.251Z,75.70
2017-10-26T01:20:20.996Z,76.00
2017-10-26T01:21:22.565Z,77.50
2017-10-26T01:22:21.954Z,79.90
2017-10-26T01:23:22.146Z,76.70
2017-10-26T01:24:21.533Z,75.00
2017-10-26T01:25:21.784Z,76.70
2017-10-26T01:26:22.030Z,76.60
2017-10-26T01:27:21.676Z,75.00
2017-10-26T01:28:21.124Z,72.00
2017-10-26T01:29:20.936Z,72.30
2017-10-26T01:30:21.953Z,68.40
2017-10-26T01:31:22.022Z,66.70
2017-10-26T01:32:20.903Z,66.70
2017-10-26T01:33:21.607Z,65.40
2017-10-26T01:34:21.354Z,69.10
2017-10-26T01:35:21.430Z,68.20
2017-10-26T01:36:21.206Z,68.70
2017-10-26T01:37:21.303Z,68.00
2017-10-26T01:38:21.560Z,69.50
2017-10-26T01:39:21.301Z,68.40
2017-10-26T01:40:21.715Z,71.60
2017-10-26T01:41:23.963Z,70.00
2017-10-26T01:42:22.433Z,69.80
2017-10-26T01:43:21.490Z,70.60
2017-10-26T01:44:21.286Z,71.50
2017-10-26T01:45:21.749Z,69.70
2017-10-26T01:46:21.595Z,74.50
2017-10-26T01:47:21.877Z,72.90
2017-10-26T01:48:22.345Z,75.40
2017-10-26T01:49:22.096Z,78.70
2017-10-26T01:50:21.818Z,77.80
2017-10-26T01:51:21.551Z,77.10
2017-10-26T01:52:21.336Z,79.50
2017-10-26T01:53:21.600Z,79.90
2017-10-26T01:54:21.684Z,78.80
2017-10-26T01:55:21.579Z,77.40
2017-10-26T01:56:21.349Z,78.40
2017-10-26T01:57:21.641Z,77.50
2017-10-26T01:58:21.811Z,79.20
2017-10-26T01:59:21.317Z,76.60
2017-10-26T02:00:21.531Z,77.30
2017-10-26T02:01:21.575Z,75.40
2017-10-26T02:02:21.588Z,77.30
2017-10-26T02:03:21.844Z,77.40
2017-10-26T02:04:22.069Z,77.80
2017-10-26T02:05:22.576Z,73.80
2017-10-26T02:06:22.198Z,74.30
2017-10-26T02:07:22.020Z,71.10
2017-10-26T02:08:22.196Z,74.90
2017-10-26T02:09:21.519Z,71.80
2017-10-26T02:10:21.677Z,76.00
2017-10-26T02:11:21.799Z,74.50
2017-10-26T02:12:21.941Z,77.40
2017-10-26T02:13:21.973Z,77.00
2017-10-26T02:14:22.332Z,77.20
2017-10-26T02:15:22.531Z,75.80
2017-10-26T02:16:21.252Z,76.40
2017-10-26T02:17:21.580Z,78.20
2017-10-26T02:18:21.567Z,77.00
2017-10-26T02:19:21.964Z,77.90
2017-10-26T02:20:21.264Z,79.70
2017-10-26T02:21:21.224Z,77.80
2017-10-26T02:22:22.012Z,83.10
2017-10-26T02:23:22.281Z,79.50
2017-10-26T02:24:23.422Z,81.20
2017-10-26T02:25:21.100Z,81.40
2017-10-26T02:26:21.767Z,79.30
2017-10-26T02:27:22.039Z,81.00
2017-10-26T02:28:21.901Z,80.90
2017-10-26T02:29:22.155Z,79.80
2017-10-26T02:30:20.831Z,82.00
2017-10-26T02:31:21.616Z,83.10
2017-10-26T02:32:21.783Z,81.40
2017-10-26T02:33:22.337Z,83.70
2017-10-26T02:34:21.320Z,87.20
2017-10-26T02:35:21.129Z,82.50
2017-10-26T02:36:21.334Z,81.50
2017-10-26T02:37:22.695Z,83.50
2017-10-26T02:38:21.672Z,81.30
2017-10-26T02:39:21.951Z,82.30
2017-10-26T02:40:22.163Z,82.00
2017-10-26T02:41:21.402Z,82.60
2017-10-26T02:42:21.470Z,79.70
2017-10-26T02:43:21.589Z,85.50
2017-10-26T02:44:21.468Z,85.00
2017-10-26T02:45:21.661Z,81.30
2017-10-26T02:46:21.702Z,86.30
2017-10-26T02:47:22.050Z,83.30
2017-10-26T02:48:21.852Z,81.50
2017-10-26T02:49:22.024Z,84.40
2017-10-26T02:50:21.143Z,79.40
2017-10-26T02:51:21.400Z,80.30
2017-10-26T02:52:21.558Z,83.40
2017-10-26T02:53:21.143Z,80.00
2017-10-26T02:54:23.578Z,78.50
2017-10-26T02:55:22.421Z,79.90
2017-10-26T02:56:22.613Z,77.60
2017-10-26T02:57:21.302Z,75.40
2017-10-26T02:58:21.008Z,76.40
2017-10-26T02:59:22.149Z,72.60
2017-10-26T03:00:21.297Z,73.30
2017-10-26T03:01:21.699Z,71.50
2017-10-26T03:02:21.936Z,69.90
2017-10-26T03:03:21.723Z,71.00
2017-10-26T03:04:21.597Z,71.50
2017-10-26T03:05:21.715Z,69.20
2017-10-26T03:06:23.229Z,69.20
2017-10-26T03:07:21.601Z,67.60
2017-10-26T03:08:21.848Z,66.70
2017-10-26T03:09:21.702Z,65.50
2017-10-26T03:10:22.461Z,64.30
2017-10-26T03:11:21.690Z,64.50
2017-10-26T03:12:21.992Z,66.20
2017-10-26T03:13:21.640Z,66.10
2017-10-26T03:14:21.392Z,64.00
2017-10-26T03:15:21.818Z,64.40
2017-10-26T03:16:21.534Z,66.00
2017-10-26T03:17:22.004Z,63.30
2017-10-26T03:18:21.446Z,66.00
2017-10-26T03:19:21.236Z,65.70
2017-10-26T03:20:21.633Z,65.70
2017-10-26T03:21:21.381Z,66.40
2017-10-26T03:22:21.571Z,63.80
2017-10-26T03:23:21.885Z,62.00
2017-10-26T03:24:22.218Z,65.70
2017-10-26T03:25:21.058Z,64.30
2017-10-26T03:26:21.773Z,61.20
2017-10-26T03:27:21.612Z,63.00
2017-10-26T03:28:21.834Z,61.40
2017-10-26T03:29:21.986Z,58.60
2017-10-26T03:30:21.119Z,56.50
2017-10-26T03:31:20.890Z,59.50
2017-10-26T03:32:21.748Z,55.90
2017-10-26T03:33:21.748Z,56.50
2017-10-26T03:34:22.002Z,57.70
2017-10-26T03:35:23.938Z,56.70
2017-10-26T03:36:21.952Z,55.40
2017-10-26T03:37:21.684Z,55.40
2017-10-26T03:38:21.391Z,56.50
2017-10-26T03:39:21.184Z,55.00
2017-10-26T03:40:22.218Z,59.40
2017-10-26T03:41:20.912Z,65.60
2017-10-26T03:42:21.607Z,60.80
2017-10-26T03:43:21.740Z,56.80
2017-10-26T03:44:22.061Z,57.40
2017-10-26T03:45:21.287Z,55.90
2017-10-26T03:46:21.419Z,56.10
2017-10-26T03:47:21.336Z,56.10
2017-10-26T03:48:21.619Z,55.90
2017-10-26T03:49:21.943Z,56.20
2017-10-26T03:50:22.324Z,53.60
2017-10-26T03:51:21.966Z,54.60
2017-10-26T03:52:21.014Z,54.00
2017-10-26T03:53:21.670Z,54.10
2017-10-26T03:54:21.736Z,53.70
2017-10-26T03:55:21.867Z,53.80
2017-10-26T03:56:22.018Z,52.40
2017-10-26T03:57:21.719Z,51.80
2017-10-26T03:58:21.825Z,50.90
2017-10-26T03:59:20.786Z,53.10
2017-10-26T04:00:21.939Z,49.10
2017-10-26T04:01:21.821Z,49.90
2017-10-26T04:02:22.064Z,51.20
2017-10-26T04:03:20.807Z,49.20
2017-10-26T04:04:37.560Z,48.50
2017-10-26T04:05:37.344Z,51.30
2017-10-26T04:06:39.512Z,50.30
2017-10-26T04:07:38.609Z,50.10
2017-10-26T04:08:38.233Z,50.20
2017-10-26T04:09:39.187Z,50.90
2017-10-26T04:10:38.298Z,51.10
2017-10-26T04:11:39.060Z,50.60
2017-10-26T04:12:38.206Z,50.50
2017-10-26T04:13:38.022Z,48.60
2017-10-26T04:14:37.854Z,48.40
2017-10-26T04:15:37.597Z,51.20
2017-10-26T04:16:38.181Z,49.90
2017-10-26T04:17:38.303Z,49.60
2017-10-26T04:18:38.051Z,49.70
2017-10-26T04:19:38.314Z,51.40
2017-10-26T04:20:38.117Z,50.10
2017-10-26T04:21:38.015Z,51.40
2017-10-26T04:22:38.176Z,51.30
2017-10-26T04:23:38.384Z,52.30
2017-10-26T04:24:38.244Z,50.80
2017-10-26T04:25:38.360Z,52.10
2017-10-26T04:26:38.104Z,49.20
2017-10-26T04:27:38.556Z,49.30
2017-10-26T04:28:37.587Z,51.50
2017-10-26T04:29:37.285Z,52.40
2017-10-26T04:30:37.810Z,52.50
2017-10-26T04:31:37.955Z,54.30
2017-10-26T04:32:38.453Z,54.80
2017-10-26T04:33:38.757Z,52.90
2017-10-26T04:34:37.593Z,55.00
2017-10-26T04:35:38.359Z,53.60
2017-10-26T04:36:38.468Z,51.20
2017-10-26T04:37:38.648Z,53.70
2017-10-26T04:38:37.923Z,53.50
2017-10-26T04:39:38.093Z,53.50
2017-10-26T04:40:37.757Z,54.70
2017-10-26T04:41:37.393Z,54.80
2017-10-26T04:42:38.555Z,56.30
2017-10-26T04:43:38.256Z,56.70
2017-10-26T04:44:38.384Z,56.00
2017-10-26T04:45:38.634Z,57.40
2017-10-26T04:46:37.666Z,57.00
2017-10-26T04:47:37.817Z,56.70
2017-10-26T04:48:38.013Z,55.80
2017-10-26T04:49:42.565Z,55.00
2017-10-26T04:50:38.171Z,56.90
2017-10-26T04:51:37.864Z,57.00
2017-10-26T04:52:38.153Z,57.70
2017-10-26T04:53:38.638Z,57.20
2017-10-26T04:54:37.956Z,55.30
2017-10-26T04:55:38.059Z,56.90
2017-10-26T04:56:38.729Z,55.10
2017-10-26T04:57:37.796Z,55.90
2017-10-26T04:58:37.681Z,56.20
2017-10-26T04:59:38.137Z,54.90
2017-10-26T05:00:38.044Z,52.30
2017-10-26T05:01:38.084Z,52.20
2017-10-26T05:02:38.327Z,52.90
2017-10-26T05:03:38.126Z,51.10
2017-10-26T05:04:38.793Z,53.60
2017-10-26T05:05:37.783Z,52.40
2017-10-26T05:06:38.145Z,53.90
2017-10-26T05:07:38.283Z,51.40
2017-10-26T05:08:38.310Z,52.40
2017-10-26T05:09:38.742Z,51.60
2017-10-26T05:10:37.798Z,54.10
2017-10-26T05:11:37.521Z,53.80
2017-10-26T05:12:38.591Z,54.20
2017-10-26T05:13:38.025Z,55.00
2017-10-26T05:14:38.222Z,56.30
2017-10-26T05:15:38.266Z,57.50
2017-10-26T05:16:37.982Z,58.20
2017-10-26T05:17:37.835Z,59.20
2017-10-26T05:18:37.594Z,58.30
2017-10-26T05:19:38.395Z,58.80
2017-10-26T05:20:39.784Z,58.20
2017-10-26T05:21:37.829Z,59.10
2017-10-26T05:22:37.587Z,59.40
2017-10-26T05:23:37.393Z,59.30
2017-10-26T05:24:39.015Z,60.40
2017-10-26T05:25:38.824Z,60.60
2017-10-26T05:26:37.939Z,59.70
2017-10-26T05:27:38.823Z,61.80
2017-10-26T05:28:37.493Z,62.00
2017-10-26T05:29:38.268Z,62.30
2017-10-26T05:30:38.426Z,63.40
2017-10-26T05:31:38.688Z,61.30
2017-10-26T05:32:38.113Z,62.50
2017-10-26T05:33:38.091Z,59.90
2017-10-26T05:34:38.432Z,60.40
2017-10-26T05:35:37.575Z,62.70
2017-10-26T05:36:37.812Z,58.90
2017-10-26T05:37:37.531Z,59.20
2017-10-26T05:38:37.516Z,57.80
2017-10-26T05:39:38.621Z,58.50
2017-10-26T05:40:37.391Z,57.60
2017-10-26T05:41:37.606Z,57.00
2017-10-26T05:42:38.293Z,56.40
2017-10-26T05:43:38.338Z,56.40
2017-10-26T05:44:38.480Z,54.10
2017-10-26T05:45:37.825Z,54.70
2017-10-26T05:46:43.288Z,54.50
2017-10-26T05:47:38.384Z,56.10
2017-10-26T05:48:38.118Z,54.50
2017-10-26T05:49:37.893Z,50.60
2017-10-26T05:50:38.145Z,52.50
2017-10-26T05:51:38.009Z,52.00
2017-10-26T05:52:37.587Z,55.30
2017-10-26T05:53:38.452Z,54.00
2017-10-26T05:54:38.517Z,52.90
2017-10-26T05:55:38.412Z,56.10
2017-10-26T05:56:39.363Z,55.60
2017-10-26T05:57:38.164Z,54.40
2017-10-26T05:58:38.472Z,55.50
2017-10-26T05:59:37.907Z,57.50
2017-10-26T06:00:37.658Z,55.30
2017-10-26T06:01:37.475Z,57.10
2017-10-26T06:02:37.902Z,55.60
2017-10-26T06:03:38.661Z,57.70
2017-10-26T06:04:37.650Z,56.70
2017-10-26T06:05:39.862Z,59.60
2017-10-26T06:06:37.707Z,59.60
2017-10-26T06:07:38.552Z,58.10
2017-10-26T06:08:37.330Z,60.90
2017-10-26T06:09:38.991Z,62.70
2017-10-26T06:10:37.784Z,62.40
2017-10-26T06:11:37.627Z,61.60
2017-10-26T06:12:37.721Z,60.40
2017-10-26T06:13:38.563Z,60.90
2017-10-26T06:14:37.487Z,61.90
2017-10-26T06:15:37.649Z,65.00
2017-10-26T06:16:38.495Z,62.80
2017-10-26T06:17:37.844Z,60.70
2017-10-26T06:18:38.602Z,62.70
2017-10-26T06:19:37.651Z,60.50
2017-10-26T06:20:38.265Z,62.00
2017-10-26T06:21:38.396Z,60.30
2017-10-26T06:22:38.819Z,63.10
2017-10-26T06:23:38.049Z,62.40
2017-10-26T06:24:38.606Z,65.60
2017-10-26T06:25:37.563Z,64.00
2017-10-26T06:26:38.373Z,67.90
2017-10-26T06:27:37.635Z,65.00
2017-10-26T06:28:38.070Z,65.40
2017-10-26T06:29:37.993Z,69.40
2017-10-26T06:30:38.470Z,70.20
2017-10-26T06:31:39.012Z,72.60
2017-10-26T06:32:38.162Z,70.30
2017-10-26T06:33:45.116Z,68.50
2017-10-26T06:34:37.736Z,71.50
2017-10-26T06:35:37.564Z,70.60
2017-10-26T06:36:37.335Z,71.60
2017-10-26T06:37:39.241Z,70.00
2017-10-26T06:38:38.613Z,71.90
2017-10-26T06:39:37.566Z,73.00
2017-10-26T06:40:37.393Z,69.80
2017-10-26T06:41:38.295Z,70.90
2017-10-26T06:42:38.737Z,71.60
2017-10-26T06:43:40.377Z,71.00
2017-10-26T06:44:38.458Z,72.40
2017-10-26T06:45:37.604Z,73.40
2017-10-26T06:46:37.855Z,74.20
2017-10-26T06:47:37.564Z,68.80
2017-10-26T06:48:38.954Z,70.30
2017-10-26T06:49:38.772Z,70.40
2017-10-26T06:50:37.819Z,71.80
2017-10-26T06:51:37.801Z,69.50
2017-10-26T06:52:38.014Z,68.70
2017-10-26T06:53:38.890Z,69.20
2017-10-26T06:54:39.092Z,72.20
2017-10-26T06:55:38.131Z,70.90
2017-10-26T06:56:38.095Z,69.10
2017-10-26T06:57:38.205Z,69.80
2017-10-26T06:58:38.994Z,65.40
2017-10-26T06:59:39.861Z,67.10
2017-10-26T07:00:38.048Z,66.10
2017-10-26T07:01:38.490Z,63.20
2017-10-26T07:02:38.557Z,60.70
2017-10-26T07:03:37.736Z,62.80
2017-10-26T07:04:41.956Z,61.30
2017-10-26T07:05:38.103Z,59.30
2017-10-26T07:06:38.471Z,56.10
2017-10-26T07:07:37.849Z,56.60
2017-10-26T07:08:39.667Z,57.50
2017-10-26T07:09:38.106Z,54.00
2017-10-26T07:10:39.157Z,53.40
2017-10-26T07:11:39.572Z,54.00
2017-10-26T07:12:37.927Z,54.00
2017-10-26T07:13:38.262Z,51.90
2017-10-26T07:14:38.679Z,50.30
2017-10-26T07:15:38.221Z,48.70
2017-10-26T07:16:38.493Z,50.20
2017-10-26T07:17:37.564Z,51.10
2017-10-26T07:18:38.004Z,50.00
2017-10-26T07:19:38.800Z,49.50
2017-10-26T07:20:37.880Z,49.20
2017-10-26T07:21:37.858Z,50.10
2017-10-26T07:22:38.113Z,49.80
2017-10-26T07:23:37.774Z,47.10
2017-10-26T07:24:38.254Z,45.80
2017-10-26T07:25:38.969Z,47.40
2017-10-26T07:26:38.217Z,47.60
2017-10-26T07:27:38.298Z,45.90
2017-10-26T07:28:40.398Z,45.80
2017-10-26T07:29:37.755Z,46.20
2017-10-26T07:30:37.651Z,47.90
2017-10-26T07:31:38.409Z,48.10
2017-10-26T07:32:38.401Z,47.60
2017-10-26T07:33:38.074Z,47.80
2017-10-26T07:34:38.956Z,45.80
2017-10-26T07:35:38.253Z,45.10
2017-10-26T07:36:39.451Z,45.70
2017-10-26T07:37:37.401Z,46.40
2017-10-26T07:38:37.401Z,46.20
2017-10-26T07:39:37.597Z,47.00
2017-10-26T07:40:39.521Z,46.10
2017-10-26T07:41:37.762Z,45.50
2017-10-26T07:42:38.305Z,46.80
2017-10-26T07:43:38.540Z,47.40
2017-10-26T07:44:37.939Z,47.30
2017-10-26T07:45:38.260Z,45.60
2017-10-26T07:46:38.694Z,47.40
2017-10-26T07:47:38.919Z,46.30
2017-10-26T07:48:38.608Z,46.10
2017-10-26T07:49:37.623Z,47.10
2017-10-26T07:50:37.484Z,46.60
2017-10-26T07:51:41.059Z,47.60
2017-10-26T07:52:38.355Z,45.40
2017-10-26T07:53:37.669Z,45.30
2017-10-26T07:54:37.942Z,45.90
2017-10-26T07:55:37.947Z,46.50
2017-10-26T07:56:38.320Z,46.90
2017-10-26T07:57:37.694Z,46.00
2017-10-26T07:58:38.057Z,45.90
2017-10-26T07:59:38.303Z,47.00
2017-10-26T08:00:40.027Z,44.40
2017-10-26T08:01:38.925Z,46.30
2017-10-26T08:02:38.231Z,45.80
2017-10-26T08:03:38.427Z,46.90
2017-10-26T08:04:38.515Z,45.70
2017-10-26T08:05:37.520Z,44.10
2017-10-26T08:06:37.477Z,45.60
2017-10-26T08:07:38.504Z,45.80
2017-10-26T08:08:38.059Z,45.40
2017-10-26T08:09:38.807Z,47.00
2017-10-26T08:10:37.680Z,45.70
2017-10-26T08:11:38.106Z,44.60
2017-10-26T08:12:38.233Z,45.00
2017-10-26T08:13:37.949Z,46.00
2017-10-26T08:14:39.322Z,45.00
2017-10-26T08:15:38.318Z,46.80
2017-10-26T08:16:37.299Z,44.30
2017-10-26T08:17:38.295Z,42.40
2017-10-26T08:18:37.514Z,45.20
2017-10-26T08:19:37.400Z,42.00
2017-10-26T08:20:37.629Z,44.20
2017-10-26T08:21:38.297Z,45.20
2017-10-26T08:22:39.924Z,43.50
2017-10-26T08:23:37.981Z,42.00
2017-10-26T08:24:37.547Z,43.10
2017-10-26T08:25:37.892Z,38.30
2017-10-26T08:26:47.894Z,41.90
2017-10-26T08:27:47.846Z,42.20
2017-10-26T08:28:48.197Z,41.40
2017-10-26T08:29:47.676Z,41.10
2017-10-26T08:30:49.229Z,40.30
2017-10-26T08:31:48.459Z,40.60
2017-10-26T08:32:48.925Z,41.50
2017-10-26T08:33:47.855Z,39.70
2017-10-26T08:34:48.106Z,42.30
2017-10-26T08:35:48.426Z,41.30
2017-10-26T08:36:48.542Z,41.40
2017-10-26T08:37:47.637Z,40.70
2017-10-26T08:38:47.945Z,41.90
2017-10-26T08:39:48.647Z,40.50
2017-10-26T08:40:47.996Z,39.00
2017-10-26T08:41:48.670Z,41.00
2017-10-26T08:42:47.544Z,41.90
2017-10-26T08:43:48.381Z,40.40
2017-10-26T08:44:48.545Z,39.60
2017-10-26T08:45:48.739Z,40.60
2017-10-26T08:46:50.159Z,40.50
2017-10-26T08:47:52.788Z,40.60
2017-10-26T08:48:49.539Z,41.80
2017-10-26T08:49:49.860Z,38.90
2017-10-26T08:50:49.416Z,40.50
2017-10-26T08:51:48.902Z,41.70
2017-10-26T08:52:49.447Z,39.30
2017-10-26T08:53:48.599Z,40.10
2017-10-26T08:54:48.264Z,40.50
2017-10-26T08:55:48.015Z,40.70
2017-10-26T08:56:50.953Z,38.00
2017-10-26T08:57:48.346Z,38.90
2017-10-26T08:58:49.912Z,39.80
2017-10-26T08:59:49.163Z,37.50
2017-10-26T09:00:48.542Z,37.90
2017-10-26T09:01:47.988Z,39.60
2017-10-26T09:02:48.981Z,38.00
2017-10-26T09:03:49.653Z,39.60
2017-10-26T09:04:47.763Z,40.80
2017-10-26T09:05:48.192Z,42.00
2017-10-26T09:06:48.322Z,38.10
2017-10-26T09:07:48.303Z,38.90
2017-10-26T09:08:49.035Z,37.10
2017-10-26T09:09:51.216Z,36.10
2017-10-26T09:10:48.572Z,36.90
2017-10-26T09:11:47.735Z,38.80
2017-10-26T09:12:48.604Z,38.80
2017-10-26T09:13:49.753Z,37.80
2017-10-26T09:14:48.692Z,37.90
2017-10-26T09:15:48.158Z,40.90
2017-10-26T09:16:48.655Z,37.60
2017-10-26T09:17:47.699Z,39.70
2017-10-26T09:18:47.677Z,38.40
2017-10-26T09:19:48.885Z,38.60
2017-10-26T09:20:48.152Z,39.30
2017-10-26T09:21:49.167Z,39.00
2017-10-26T09:22:48.113Z,40.50
2017-10-26T09:23:49.364Z,39.60
2017-10-26T09:24:52.847Z,41.10
2017-10-26T09:25:48.646Z,40.10
2017-10-26T09:26:48.611Z,41.10
2017-10-26T09:27:48.109Z,39.30
2017-10-26T09:28:49.140Z,38.40
2017-10-26T09:29:49.235Z,37.30
2017-10-26T09:30:48.547Z,35.40
2017-10-26T09:31:48.080Z,38.30
2017-10-26T09:32:49.870Z,35.00
2017-10-26T09:33:47.824Z,37.70
2017-10-26T09:34:51.769Z,36.90
2017-10-26T09:35:47.649Z,35.30
2017-10-26T09:36:47.854Z,35.40
2017-10-26T09:37:48.776Z,34.80
2017-10-26T09:38:48.633Z,36.50
2017-10-26T09:39:47.559Z,37.70
2017-10-26T09:40:48.130Z,35.90
2017-10-26T09:41:47.598Z,35.40
2017-10-26T09:42:48.342Z,35.20
2017-10-26T09:43:47.727Z,36.40
2017-10-26T09:44:48.619Z,33.40
2017-10-26T09:45:48.120Z,32.00
2017-10-26T09:46:48.597Z,32.30
2017-10-26T09:47:48.013Z,32.50
2017-10-26T09:48:48.365Z,32.00
2017-10-26T09:49:48.744Z,31.70
2017-10-26T09:50:48.543Z,34.40
2017-10-26T09:51:47.642Z,34.10
2017-10-26T09:52:47.630Z,34.20
2017-10-26T09:53:48.088Z,32.80
2017-10-26T09:54:48.242Z,34.00
2017-10-26T09:55:48.453Z,32.40
2017-10-26T09:56:47.984Z,32.10
2017-10-26T09:57:49.217Z,34.40
2017-10-26T09:58:51.915Z,32.00
2017-10-26T09:59:48.131Z,31.90
2017-10-26T10:00:48.341Z,32.90
2017-10-26T10:01:48.288Z,29.90
2017-10-26T10:02:47.761Z,30.70
2017-10-26T10:03:47.958Z,31.30
2017-10-26T10:04:48.700Z,31.90
2017-10-26T10:05:48.996Z,31.40
2017-10-26T10:06:48.094Z,30.70
2017-10-26T10:07:48.901Z,28.70
2017-10-26T10:08:47.773Z,27.30
2017-10-26T10:09:49.552Z,27.10
2017-10-26T10:10:47.389Z,27.40
2017-10-26T10:11:47.986Z,28.00
2017-10-26T10:12:49.270Z,27.40
2017-10-26T10:13:48.195Z,27.90
2017-10-26T10:14:48.653Z,28.60
2017-10-26T10:15:48.008Z,28.50
2017-10-26T10:16:47.918Z,29.30
2017-10-26T10:17:48.755Z,29.40
2017-10-26T10:18:48.580Z,29.50
2017-10-26T10:19:48.034Z,28.30
2017-10-26T10:20:48.809Z,28.90
2017-10-26T10:21:48.303Z,28.70
2017-10-26T10:22:49.556Z,29.30
2017-10-26T10:23:48.017Z,28.30
2017-10-26T10:24:48.633Z,26.10
2017-10-26T10:25:48.575Z,27.50
2017-10-26T10:26:47.847Z,25.90
2017-10-26T10:27:49.508Z,26.00
2017-10-26T10:28:48.440Z,26.70
2017-10-26T10:29:49.964Z,24.80
2017-10-26T10:30:48.828Z,27.10
2017-10-26T10:31:49.208Z,28.00
2017-10-26T10:32:51.887Z,27.90
2017-10-26T10:33:48.399Z,27.30
2017-10-26T10:34:48.224Z,27.70
2017-10-26T10:35:49.261Z,27.00
2017-10-26T10:36:48.452Z,26.60
2017-10-26T10:37:49.135Z,28.80
2017-10-26T10:38:48.214Z,26.60
2017-10-26T10:39:48.614Z,25.70
2017-10-26T10:40:47.946Z,26.50
2017-10-26T10:41:48.632Z,27.40
2017-10-26T10:42:48.706Z,27.40
2017-10-26T10:43:48.077Z,26.10
2017-10-26T10:44:28.574Z,25.70
2017-10-26T10:45:30.049Z,25.70
2017-10-26T10:46:30.405Z,24.80
2017-10-26T10:47:31.810Z,26.90
2017-10-26T10:48:30.266Z,26.90
2017-10-26T10:49:30.456Z,25.10
2017-10-26T10:50:28.709Z,25.40
2017-10-26T10:51:29.623Z,26.00
2017-10-26T10:52:32.259Z,26.60
2017-10-26T10:53:29.447Z,27.00
2017-10-26T10:54:31.215Z,26.30
2017-10-26T10:55:30.786Z,26.60
2017-10-26T10:56:29.629Z,25.80
2017-10-26T10:57:29.316Z,26.40
2017-10-26T10:58:31.115Z,25.00
2017-10-26T10:59:29.388Z,24.80
2017-10-26T11:00:30.029Z,24.00
2017-10-26T11:01:29.660Z,25.10
2017-10-26T11:02:29.950Z,24.70
2017-10-26T11:03:28.994Z,24.80
2017-10-26T11:04:29.689Z,24.20
2017-10-26T11:05:30.068Z,25.50
2017-10-26T11:06:29.981Z,23.20
2017-10-26T11:07:29.531Z,22.70
2017-10-26T11:08:29.229Z,22.60
2017-10-26T11:09:29.949Z,22.30
2017-10-26T11:10:29.290Z,23.50
2017-10-26T11:11:30.174Z,24.00
2017-10-26T11:12:29.996Z,25.20
2017-10-26T11:13:29.306Z,25.10
2017-10-26T11:14:32.820Z,24.70
2017-10-26T11:15:29.108Z,23.50
2017-10-26T11:16:30.148Z,25.20
2017-10-26T11:17:29.875Z,24.20
2017-10-26T11:18:29.678Z,23.80
2017-10-26T11:19:29.632Z,24.10
2017-10-26T11:20:30.140Z,25.30
2017-10-26T11:21:29.386Z,22.80
2017-10-26T11:22:29.085Z,24.70
2017-10-26T11:23:30.053Z,24.70
2017-10-26T11:24:30.491Z,24.10
2017-10-26T11:25:29.421Z,23.10
2017-10-26T11:26:28.883Z,22.80
2017-10-26T11:27:29.729Z,22.90
2017-10-26T11:28:30.779Z,23.30
2017-10-26T11:29:30.153Z,23.30
2017-10-26T11:30:30.156Z,23.20
2017-10-26T11:31:30.419Z,23.80
2017-10-26T11:32:29.518Z,24.30
2017-10-26T11:33:29.563Z,22.90
2017-10-26T11:34:30.796Z,21.60
2017-10-26T11:35:28.925Z,22.80
2017-10-26T11:36:29.044Z,20.50
2017-10-26T11:37:29.358Z,20.80
2017-10-26T11:38:30.768Z,23.20
2017-10-26T11:39:31.424Z,21.90
2017-10-26T11:40:29.378Z,22.40
2017-10-26T11:41:30.248Z,21.60
2017-10-26T11:42:28.661Z,21.90
2017-10-26T11:43:29.132Z,21.10
2017-10-26T11:44:30.300Z,20.90
2017-10-26T11:45:29.406Z,22.30
2017-10-26T11:46:29.503Z,21.30
2017-10-26T11:47:29.066Z,20.00
2017-10-26T11:48:29.312Z,22.00
2017-10-26T11:49:36.123Z,19.90
2017-10-26T11:50:33.885Z,21.40
2017-10-26T11:51:28.940Z,20.40
2017-10-26T11:52:29.843Z,19.20
2017-10-26T11:53:28.945Z,20.50
2017-10-26T11:54:30.281Z,21.60
2017-10-26T11:55:28.640Z,19.80
2017-10-26T11:56:29.398Z,19.70
2017-10-26T11:57:29.227Z,18.30
2017-10-26T11:58:29.041Z,21.40
2017-10-26T11:59:29.855Z,20.50
2017-10-26T12:00:29.677Z,20.50
2017-10-26T12:01:31.012Z,19.20
2017-10-26T12:02:30.712Z,21.50
2017-10-26T12:03:29.958Z,19.90
2017-10-26T12:04:29.011Z,20.10
2017-10-26T12:05:29.741Z,20.20
2017-10-26T12:06:29.425Z,20.00
2017-10-26T12:07:28.990Z,19.90
2017-10-26T12:08:29.382Z,19.00
2017-10-26T12:09:29.869Z,20.10
2017-10-26T12:10:28.985Z,19.60
2017-10-26T12:11:29.957Z,19.50
2017-10-26T12:12:28.902Z,18.70
2017-10-26T12:13:29.549Z,19.30
2017-10-26T12:14:28.983Z,20.70
2017-10-26T12:15:29.626Z,20.60
2017-10-26T12:16:30.069Z,21.00
2017-10-26T12:17:29.833Z,20.20
2017-10-26T12:18:29.766Z,19.80
2017-10-26T12:19:31.096Z,19.20
2017-10-26T12:20:29.647Z,20.10
2017-10-26T12:21:28.822Z,21.10
2017-10-26T12:22:29.261Z,19.30
2017-10-26T12:23:30.177Z,19.70
2017-10-26T12:24:31.669Z,19.40
2017-10-26T12:25:28.803Z,21.00
2017-10-26T12:26:28.861Z,19.60
2017-10-26T12:27:29.930Z,21.20
2017-10-26T12:28:29.717Z,19.40
2017-10-26T12:29:32.633Z,19.30
2017-10-26T12:30:29.837Z,19.30
2017-10-26T12:31:29.354Z,19.60
2017-10-26T12:32:29.038Z,18.80
2017-10-26T12:33:28.586Z,19.50
2017-10-26T12:34:29.033Z,18.90
2017-10-26T12:35:29.008Z,19.10
2017-10-26T12:36:29.719Z,20.50
2017-10-26T12:37:31.503Z,20.10
2017-10-26T12:38:29.059Z,19.60
2017-10-26T12:39:30.411Z,18.50
2017-10-26T12:40:29.050Z,17.30
2017-10-26T12:41:29.048Z,18.30
2017-10-26T12:42:29.866Z,18.40
2017-10-26T12:43:29.527Z,19.00
2017-10-26T12:44:29.762Z,18.80
2017-10-26T12:45:29.378Z,18.00
2017-10-26T12:46:28.377Z,18.70
2017-10-26T12:47:29.075Z,18.10
2017-10-26T12:48:29.932Z,18.50
2017-10-26T12:49:29.223Z,18.20
2017-10-26T12:50:29.584Z,17.90
2017-10-26T12:51:29.888Z,17.00
2017-10-26T12:52:29.578Z,16.80